createdAt,value
2018-12-20T00:00:01.874Z,26.70
2018-12-20T00:01:01.914Z,27.30
2018-12-20T00:02:01.760Z,26.80
2018-12-20T00:03:01.684Z,28.40
2018-12-20T00:04:01.636Z,26.30
2018-12-20T00:05:01.601Z,26.80
2018-12-20T00:06:01.589Z,28.30
2018-12-20T00:07:01.570Z,26.90
2018-12-20T00:08:01.508Z,27.80
2018-12-20T00:09:01.500Z,28.60
2018-12-20T00:10:01.566Z,27.30
2018-12-20T00:11:01.422Z,27.90
2018-12-20T00:12:01.426Z,27.00
2018-12-20T00:13:01.414Z,27.80
2018-12-20T00:14:01.314Z,27.10
2018-12-20T00:15:01.373Z,27.20
2018-12-20T00:16:01.361Z,28.00
2018-12-20T00:17:01.216Z,28.00
2018-12-20T00:18:01.214Z,28.70
2018-12-20T00:19:01.173Z,27.20
2018-12-20T00:20:01.124Z,27.70
2018-12-20T00:21:01.089Z,27.60
2018-12-20T00:22:01.058Z,28.00
2018-12-20T00:23:01.151Z,28.10
2018-12-20T00:24:00.992Z,27.10
2018-12-20T00:25:00.978Z,28.20
2018-12-20T00:26:00.935Z,28.40
2018-12-20T00:27:00.920Z,27.20
2018-12-20T00:28:00.944Z,26.80
2018-12-20T00:29:00.834Z,26.50
2018-12-20T00:30:00.871Z,27.60
2018-12-20T00:31:00.844Z,27.40
2018-12-20T00:32:00.737Z,27.60
2018-12-20T00:33:00.736Z,26.60
2018-12-20T00:34:00.797Z,27.00
2018-12-20T00:35:00.713Z,26.80
2018-12-20T00:36:00.624Z,27.70
2018-12-20T00:37:00.678Z,27.10
2018-12-20T00:38:00.709Z,27.50
2018-12-20T00:39:00.551Z,26.60
2018-12-20T00:40:06.495Z,28.40
2018-12-20T00:41:00.658Z,27.70
2018-12-20T00:42:00.424Z,27.60
2018-12-20T00:43:00.406Z,28.50
2018-12-20T00:44:00.359Z,27.80
2018-12-20T00:45:00.339Z,28.30
2018-12-20T00:46:00.291Z,28.30
2018-12-20T00:47:00.264Z,28.30
2018-12-20T00:48:00.410Z,28.70
2018-12-20T00:49:00.218Z,27.10
2018-12-20T00:50:00.172Z,27.00
2018-12-20T00:51:00.165Z,29.50
2018-12-20T00:52:00.113Z,27.70
2018-12-20T00:53:00.321Z,28.00
2018-12-20T00:54:00.059Z,28.20
2018-12-20T00:55:00.156Z,28.30
2018-12-20T00:56:00.020Z,28.40
2018-12-20T00:56:59.974Z,28.30
2018-12-20T00:57:59.911Z,28.30
2018-12-20T00:58:59.884Z,28.10
2018-12-20T00:59:59.955Z,29.80
2018-12-20T01:00:59.813Z,28.00
2018-12-20T01:01:59.921Z,29.00
2018-12-20T01:02:59.944Z,28.00
2018-12-20T01:03:59.728Z,28.10
2018-12-20T01:04:59.701Z,28.60
2018-12-20T01:05:59.706Z,29.40
2018-12-20T01:06:59.799Z,27.80
2018-12-20T01:07:59.750Z,29.20
2018-12-20T01:08:59.662Z,27.10
2018-12-20T01:09:59.675Z,28.50
2018-12-20T01:10:59.496Z,27.40
2018-12-20T01:11:59.473Z,29.20
2018-12-20T01:12:59.432Z,27.30
2018-12-20T01:13:59.403Z,27.40
2018-12-20T01:14:59.427Z,27.80
2018-12-20T01:15:59.432Z,28.60
2018-12-20T01:16:59.308Z,28.90
2018-12-20T01:17:59.272Z,29.50
2018-12-20T01:18:59.285Z,28.10
2018-12-20T01:19:59.348Z,27.30
2018-12-20T01:20:59.180Z,28.80
2018-12-20T01:21:59.146Z,28.90
2018-12-20T01:22:59.260Z,28.40
2018-12-20T01:23:59.177Z,28.60
2018-12-20T01:24:59.112Z,28.00
2018-12-20T01:25:59.162Z,28.90
2018-12-20T01:26:58.992Z,27.60
2018-12-20T01:27:58.984Z,28.80
2018-12-20T01:28:58.921Z,27.50
2018-12-20T01:29:58.999Z,28.50
2018-12-20T01:30:58.905Z,27.70
2018-12-20T01:31:58.826Z,27.80
2018-12-20T01:32:58.794Z,28.40
2018-12-20T01:33:58.897Z,30.00
2018-12-20T01:34:58.734Z,29.80
2018-12-20T01:35:58.728Z,29.90
2018-12-20T01:36:58.669Z,29.80
2018-12-20T01:37:58.637Z,28.80
2018-12-20T01:38:58.820Z,30.10
2018-12-20T01:39:58.571Z,29.00
2018-12-20T01:40:58.569Z,29.40
2018-12-20T01:41:58.520Z,29.90
2018-12-20T01:42:58.642Z,30.10
2018-12-20T01:43:58.549Z,30.80
2018-12-20T01:44:58.413Z,30.10
2018-12-20T01:45:58.638Z,30.50
2018-12-20T01:46:58.737Z,30.30
2018-12-20T01:47:58.329Z,30.90
2018-12-20T01:48:58.429Z,30.00
2018-12-20T01:49:58.253Z,30.60
2018-12-20T01:50:58.343Z,31.90
2018-12-20T01:51:58.309Z,33.20
2018-12-20T01:52:58.156Z,31.90
2018-12-20T01:53:58.136Z,32.10
2018-12-20T01:54:58.264Z,32.80
2018-12-20T01:55:58.075Z,32.50
2018-12-20T01:56:58.119Z,32.00
2018-12-20T01:57:58.000Z,31.80
2018-12-20T01:58:57.972Z,31.70
2018-12-20T01:59:58.099Z,32.30
2018-12-20T02:00:58.210Z,32.50
2018-12-20T02:01:57.866Z,33.90
2018-12-20T02:02:57.852Z,33.00
2018-12-20T02:03:58.037Z,34.30
2018-12-20T02:04:57.843Z,33.70
2018-12-20T02:05:57.739Z,34.20
2018-12-20T02:06:57.713Z,33.20
2018-12-20T02:07:57.701Z,32.90
2018-12-20T02:08:57.691Z,32.60
2018-12-20T02:09:57.611Z,33.60
2018-12-20T02:10:57.756Z,33.90
2018-12-20T02:11:57.564Z,33.50
2018-12-20T02:12:57.516Z,33.20
2018-12-20T02:13:57.485Z,33.20
2018-12-20T02:15:01.605Z,34.50
2018-12-20T02:15:57.654Z,33.40
2018-12-20T02:16:57.476Z,33.70
2018-12-20T02:17:57.351Z,32.40
2018-12-20T02:18:57.327Z,33.00
2018-12-20T02:19:57.369Z,33.90
2018-12-20T02:20:57.515Z,32.70
2018-12-20T02:21:57.237Z,32.30
2018-12-20T02:22:57.244Z,32.30
2018-12-20T02:23:57.454Z,33.50
2018-12-20T02:24:57.343Z,33.10
2018-12-20T02:25:57.094Z,31.90
2018-12-20T02:26:57.098Z,34.10
2018-12-20T02:27:57.029Z,34.30
2018-12-20T02:28:57.006Z,33.60
2018-12-20T02:29:57.006Z,33.30
2018-12-20T02:30:56.934Z,34.60
2018-12-20T02:31:56.903Z,35.20
2018-12-20T02:32:57.006Z,35.30
2018-12-20T02:33:56.839Z,36.30
2018-12-20T02:34:56.866Z,37.50
2018-12-20T02:35:56.868Z,37.40
2018-12-20T02:36:56.770Z,38.00
2018-12-20T02:37:56.726Z,38.90
2018-12-20T02:38:56.680Z,38.90
2018-12-20T02:39:56.669Z,40.70
2018-12-20T02:40:56.786Z,40.70
2018-12-20T02:41:56.614Z,40.80
2018-12-20T02:42:56.597Z,40.70
2018-12-20T02:43:56.673Z,40.40
2018-12-20T02:44:56.697Z,41.60
2018-12-20T02:45:56.452Z,41.00
2018-12-20T02:46:56.421Z,40.70
2018-12-20T02:47:56.430Z,40.90
2018-12-20T02:48:56.438Z,41.10
2018-12-20T02:49:56.341Z,40.50
2018-12-20T02:50:56.289Z,42.20
2018-12-20T02:51:56.336Z,43.10
2018-12-20T02:52:56.400Z,41.90
2018-12-20T02:53:56.298Z,43.80
2018-12-20T02:54:56.174Z,43.10
2018-12-20T02:55:56.359Z,43.10
2018-12-20T02:56:56.309Z,41.40
2018-12-20T02:57:56.068Z,42.80
2018-12-20T02:58:56.083Z,42.00
2018-12-20T02:59:56.014Z,41.80
2018-12-20T03:00:56.027Z,42.20
2018-12-20T03:01:56.089Z,43.10
2018-12-20T03:02:56.027Z,44.00
2018-12-20T03:03:55.867Z,43.90
2018-12-20T03:04:56.062Z,43.10
2018-12-20T03:05:55.803Z,44.30
2018-12-20T03:06:55.978Z,44.80
2018-12-20T03:07:55.917Z,43.60
2018-12-20T03:08:55.827Z,44.00
2018-12-20T03:09:55.831Z,43.80
2018-12-20T03:10:55.643Z,46.00
2018-12-20T03:11:55.609Z,44.20
2018-12-20T03:12:55.585Z,44.30
2018-12-20T03:13:55.553Z,44.70
2018-12-20T03:14:55.653Z,45.40
2018-12-20T03:15:55.581Z,44.50
2018-12-20T03:16:55.445Z,43.60
2018-12-20T03:17:55.448Z,45.80
2018-12-20T03:18:55.643Z,45.10
2018-12-20T03:19:55.381Z,45.60
2018-12-20T03:20:55.353Z,46.10
2018-12-20T03:21:55.346Z,45.50
2018-12-20T03:22:55.269Z,47.10
2018-12-20T03:23:55.408Z,47.70
2018-12-20T03:24:55.389Z,47.80
2018-12-20T03:25:55.265Z,47.90
2018-12-20T03:26:55.169Z,48.10
2018-12-20T03:27:55.296Z,48.40
2018-12-20T03:28:55.330Z,47.40
2018-12-20T03:29:55.067Z,46.60
2018-12-20T03:30:55.067Z,46.10
2018-12-20T03:31:55.089Z,47.00
2018-12-20T03:32:55.454Z,47.80
2018-12-20T03:33:54.894Z,47.80
2018-12-20T03:34:54.862Z,47.10
2018-12-20T03:35:54.856Z,48.80
2018-12-20T03:36:55.082Z,48.40
2018-12-20T03:37:54.763Z,48.30
2018-12-20T03:38:54.785Z,48.90
2018-12-20T03:39:56.789Z,48.30
2018-12-20T03:40:54.812Z,49.60
2018-12-20T03:41:54.639Z,48.80
2018-12-20T03:42:54.653Z,48.50
2018-12-20T03:43:54.591Z,47.60
2018-12-20T03:44:54.793Z,49.10
2018-12-20T03:45:54.505Z,50.90
2018-12-20T03:46:54.472Z,48.80
2018-12-20T03:47:54.466Z,48.40
2018-12-20T03:48:54.453Z,49.90
2018-12-20T03:49:54.485Z,50.00
2018-12-20T03:50:54.487Z,51.10
2018-12-20T03:51:54.317Z,51.80
2018-12-20T03:52:54.395Z,50.50
2018-12-20T03:53:54.404Z,52.20
2018-12-20T03:54:54.213Z,51.20
2018-12-20T03:55:54.456Z,52.30
2018-12-20T03:56:54.234Z,52.70
2018-12-20T03:57:54.187Z,51.70
2018-12-20T03:58:54.113Z,51.20
2018-12-20T03:59:54.048Z,52.20
2018-12-20T04:00:54.018Z,51.60
2018-12-20T04:01:54.023Z,53.60
2018-12-20T04:02:54.215Z,53.30
2018-12-20T04:03:53.920Z,49.50
2018-12-20T04:04:53.887Z,49.70
2018-12-20T04:05:53.860Z,51.90
2018-12-20T04:06:53.960Z,50.30
2018-12-20T04:07:53.936Z,50.00
2018-12-20T04:08:53.858Z,51.20
2018-12-20T04:09:53.832Z,49.90
2018-12-20T04:10:53.715Z,51.30
2018-12-20T04:11:53.782Z,51.10
2018-12-20T04:12:53.631Z,51.10
2018-12-20T04:13:53.637Z,50.50
2018-12-20T04:14:53.655Z,51.00
2018-12-20T04:15:53.556Z,50.40
2018-12-20T04:16:53.503Z,50.10
2018-12-20T04:17:53.742Z,50.50
2018-12-20T04:18:53.734Z,50.20
2018-12-20T04:19:53.644Z,50.20
2018-12-20T04:20:53.657Z,50.40
2018-12-20T04:21:53.551Z,50.60
2018-12-20T04:22:53.459Z,50.40
2018-12-20T04:23:53.640Z,49.00
2018-12-20T04:24:53.244Z,49.30
2018-12-20T04:25:53.255Z,49.80
2018-12-20T04:26:53.232Z,50.10
2018-12-20T04:27:53.259Z,50.30
2018-12-20T04:28:53.119Z,49.30
2018-12-20T04:29:53.089Z,50.60
2018-12-20T04:30:53.154Z,48.60
2018-12-20T04:31:53.217Z,47.90
2018-12-20T04:32:53.136Z,47.60
2018-12-20T04:33:53.098Z,50.30
2018-12-20T04:34:52.949Z,46.40
2018-12-20T04:35:52.957Z,49.00
2018-12-20T04:36:52.860Z,49.10
2018-12-20T04:37:52.867Z,47.50
2018-12-20T04:38:52.900Z,49.10
2018-12-20T04:39:52.837Z,47.50
2018-12-20T04:40:52.866Z,49.60
2018-12-20T04:41:52.698Z,48.30
2018-12-20T04:42:52.711Z,48.30
2018-12-20T04:43:52.633Z,46.80
2018-12-20T04:44:52.693Z,47.30
2018-12-20T04:45:52.569Z,47.90
2018-12-20T04:46:52.565Z,47.50
2018-12-20T04:47:52.505Z,48.10
2018-12-20T04:48:52.553Z,48.50
2018-12-20T04:49:52.682Z,47.80
2018-12-20T04:50:52.632Z,47.50
2018-12-20T04:51:52.376Z,47.30
2018-12-20T04:52:52.546Z,48.40
2018-12-20T04:53:52.505Z,48.00
2018-12-20T04:54:52.320Z,48.60
2018-12-20T04:55:52.531Z,47.80
2018-12-20T04:56:52.302Z,47.60
2018-12-20T04:57:52.183Z,48.20
2018-12-20T04:58:52.174Z,47.70
2018-12-20T04:59:52.166Z,48.60
2018-12-20T05:00:52.086Z,47.30
2018-12-20T05:01:52.173Z,48.00
2018-12-20T05:02:52.021Z,49.00
2018-12-20T05:03:51.989Z,48.70
2018-12-20T05:04:51.959Z,49.30
2018-12-20T05:05:51.972Z,49.10
2018-12-20T05:06:51.899Z,48.80
2018-12-20T05:07:51.861Z,50.20
2018-12-20T05:08:51.845Z,48.50
2018-12-20T05:09:51.793Z,50.40
2018-12-20T05:10:51.981Z,50.50
2018-12-20T05:11:51.837Z,50.40
2018-12-20T05:12:51.699Z,49.60
2018-12-20T05:13:51.665Z,49.20
2018-12-20T05:14:51.794Z,48.70
2018-12-20T05:15:56.006Z,49.40
2018-12-20T05:16:51.566Z,49.30
2018-12-20T05:17:51.765Z,51.50
2018-12-20T05:18:51.503Z,50.20
2018-12-20T05:19:51.614Z,50.70
2018-12-20T05:20:51.439Z,51.60
2018-12-20T05:21:51.406Z,52.90
2018-12-20T05:22:51.481Z,50.80
2018-12-20T05:23:51.519Z,51.50
2018-12-20T05:24:51.309Z,50.20
2018-12-20T05:25:51.276Z,52.30
2018-12-20T05:26:51.251Z,51.90
2018-12-20T05:27:51.445Z,50.20
2018-12-20T05:28:51.351Z,51.60
2018-12-20T05:29:51.347Z,50.80
2018-12-20T05:30:51.117Z,49.70
2018-12-20T05:31:51.083Z,50.40
2018-12-20T05:32:51.203Z,50.60
2018-12-20T05:33:51.165Z,49.30
2018-12-20T05:34:51.295Z,50.10
2018-12-20T05:35:50.985Z,52.60
2018-12-20T05:36:50.925Z,50.60
2018-12-20T05:37:50.889Z,50.00
2018-12-20T05:38:50.859Z,49.90
2018-12-20T05:39:50.875Z,49.80
2018-12-20T05:40:50.810Z,51.60
2018-12-20T05:41:50.786Z,49.30
2018-12-20T05:42:50.728Z,50.40
2018-12-20T05:43:50.739Z,49.50
2018-12-20T05:44:50.680Z,49.20
2018-12-20T05:45:50.631Z,50.10
2018-12-20T05:46:50.613Z,49.90
2018-12-20T05:47:50.712Z,49.80
2018-12-20T05:48:50.566Z,50.70
2018-12-20T05:49:50.697Z,47.90
2018-12-20T05:50:50.483Z,49.10
2018-12-20T05:51:50.475Z,49.10
2018-12-20T05:52:50.628Z,47.70
2018-12-20T05:53:50.371Z,48.40
2018-12-20T05:54:50.347Z,49.60
2018-12-20T05:55:50.306Z,48.80
2018-12-20T05:56:50.413Z,49.40
2018-12-20T05:57:50.550Z,48.30
2018-12-20T05:58:50.311Z,46.70
2018-12-20T05:59:50.178Z,46.50
2018-12-20T06:00:50.144Z,48.40
2018-12-20T06:01:50.203Z,48.80
2018-12-20T06:02:50.096Z,48.90
2018-12-20T06:03:50.049Z,48.60
2018-12-20T06:04:50.019Z,48.70
2018-12-20T06:05:50.017Z,47.60
2018-12-20T06:06:50.171Z,47.40
2018-12-20T06:07:50.077Z,48.30
2018-12-20T06:08:49.937Z,49.80
2018-12-20T06:09:49.935Z,48.20
2018-12-20T06:10:49.831Z,48.20
2018-12-20T06:11:49.997Z,48.40
2018-12-20T06:12:49.864Z,48.60
2018-12-20T06:13:49.813Z,47.90
2018-12-20T06:14:49.702Z,47.20
2018-12-20T06:15:49.871Z,49.20
2018-12-20T06:16:49.630Z,49.60
2018-12-20T06:17:49.614Z,48.00
2018-12-20T06:18:49.567Z,47.60
2018-12-20T06:19:49.688Z,49.10
2018-12-20T06:20:49.558Z,49.40
2018-12-20T06:21:49.474Z,49.50
2018-12-20T06:22:49.439Z,49.50
2018-12-20T06:23:49.406Z,50.10
2018-12-20T06:24:49.386Z,48.00
2018-12-20T06:25:49.356Z,49.60
2018-12-20T06:26:49.328Z,49.40
2018-12-20T06:27:49.276Z,49.50
2018-12-20T06:28:49.255Z,48.80
2018-12-20T06:29:49.216Z,50.30
2018-12-20T06:30:49.186Z,48.00
2018-12-20T06:31:49.160Z,49.20
2018-12-20T06:32:49.117Z,48.10
2018-12-20T06:33:49.085Z,50.40
2018-12-20T06:34:49.054Z,48.20
2018-12-20T06:35:49.020Z,50.40
2018-12-20T06:36:48.989Z,51.50
2018-12-20T06:37:48.960Z,48.40
2018-12-20T06:38:48.926Z,49.00
2018-12-20T06:39:48.894Z,49.20
2018-12-20T06:40:48.860Z,50.20
2018-12-20T06:41:48.828Z,49.00
2018-12-20T06:42:48.797Z,49.30
2018-12-20T06:43:48.770Z,51.90
2018-12-20T06:44:48.762Z,50.70
2018-12-20T06:45:48.704Z,52.10
2018-12-20T06:46:48.667Z,51.10
2018-12-20T06:47:48.636Z,50.30
2018-12-20T06:48:48.609Z,50.00
2018-12-20T06:49:48.572Z,50.70
2018-12-20T06:50:48.541Z,49.00
2018-12-20T06:51:48.511Z,50.10
2018-12-20T06:52:48.482Z,50.50
2018-12-20T06:53:48.444Z,50.90
2018-12-20T06:54:48.412Z,50.10
2018-12-20T06:55:48.378Z,50.90
2018-12-20T06:56:48.348Z,51.70
2018-12-20T06:57:48.316Z,50.10
2018-12-20T06:58:48.283Z,51.50
2018-12-20T06:59:48.251Z,53.70
2018-12-20T07:00:48.217Z,53.20
2018-12-20T07:01:48.186Z,51.10
2018-12-20T07:02:48.155Z,50.80
2018-12-20T07:03:48.121Z,51.90
2018-12-20T07:04:48.092Z,51.90
2018-12-20T07:05:48.086Z,52.70
2018-12-20T07:06:48.027Z,54.40
2018-12-20T07:07:47.993Z,51.40
2018-12-20T07:08:47.961Z,53.40
2018-12-20T07:09:47.929Z,54.50
2018-12-20T07:10:47.903Z,53.70
2018-12-20T07:11:47.871Z,53.20
2018-12-20T07:12:47.836Z,54.20
2018-12-20T07:13:47.803Z,53.80
2018-12-20T07:14:47.767Z,54.40
2018-12-20T07:15:47.736Z,52.40
2018-12-20T07:16:47.704Z,53.30
2018-12-20T07:17:47.673Z,53.30
2018-12-20T07:18:47.671Z,55.00
2018-12-20T07:19:47.608Z,53.90
2018-12-20T07:20:47.575Z,55.20
2018-12-20T07:21:47.546Z,54.80
2018-12-20T07:22:47.516Z,52.40
2018-12-20T07:23:47.479Z,53.10
2018-12-20T07:24:47.445Z,54.80
2018-12-20T07:25:47.413Z,55.20
2018-12-20T07:26:47.838Z,55.60
2018-12-20T07:27:47.352Z,52.80
2018-12-20T07:28:47.319Z,54.00
2018-12-20T07:29:47.286Z,55.70
2018-12-20T07:30:47.253Z,57.30
2018-12-20T07:31:47.233Z,53.60
2018-12-20T07:32:47.188Z,55.20
2018-12-20T07:33:47.157Z,55.40
2018-12-20T07:34:48.010Z,55.20
2018-12-20T07:35:47.091Z,55.60
2018-12-20T07:36:47.060Z,55.00
2018-12-20T07:37:47.033Z,56.40
2018-12-20T07:38:46.996Z,54.80
2018-12-20T07:39:46.963Z,54.70
2018-12-20T07:40:46.931Z,55.90
2018-12-20T07:41:46.905Z,55.00
2018-12-20T07:42:46.868Z,54.70
2018-12-20T07:43:46.836Z,55.00
2018-12-20T07:44:46.805Z,54.80
2018-12-20T07:45:46.800Z,54.70
2018-12-20T07:46:46.739Z,56.40
2018-12-20T07:47:46.801Z,57.00
2018-12-20T07:48:46.683Z,55.70
2018-12-20T07:49:46.743Z,54.10
2018-12-20T07:50:46.617Z,56.40
2018-12-20T07:51:46.587Z,55.80
2018-12-20T07:52:46.565Z,55.80
2018-12-20T07:53:46.512Z,55.70
2018-12-20T07:54:46.480Z,57.00
2018-12-20T07:55:46.448Z,57.80
2018-12-20T07:56:46.429Z,59.00
2018-12-20T07:57:46.386Z,58.10
2018-12-20T07:58:46.352Z,58.50
2018-12-20T07:59:46.330Z,57.00
2018-12-20T08:00:46.286Z,58.80
2018-12-20T08:01:46.255Z,58.60
2018-12-20T08:02:46.221Z,59.40
2018-12-20T08:03:46.197Z,59.10
2018-12-20T08:04:46.156Z,60.60
2018-12-20T08:05:46.140Z,59.60
2018-12-20T08:06:46.096Z,60.80
2018-12-20T08:07:46.059Z,56.00
2018-12-20T08:08:46.027Z,59.40
2018-12-20T08:09:46.003Z,60.70
2018-12-20T08:10:45.963Z,59.40
2018-12-20T08:11:45.931Z,59.90
2018-12-20T08:12:45.903Z,60.00
2018-12-20T08:13:45.866Z,60.40
2018-12-20T08:14:45.839Z,60.00
2018-12-20T08:15:45.802Z,60.00
2018-12-20T08:16:46.209Z,58.30
2018-12-20T08:17:45.739Z,58.90
2018-12-20T08:18:45.706Z,58.00
2018-12-20T08:19:45.675Z,58.20
2018-12-20T08:20:45.653Z,57.00
2018-12-20T08:21:45.609Z,59.70
2018-12-20T08:22:45.585Z,59.70
2018-12-20T08:23:45.549Z,60.30
2018-12-20T08:24:45.514Z,60.80
2018-12-20T08:25:45.482Z,60.50
2018-12-20T08:26:45.461Z,61.00
2018-12-20T08:27:45.418Z,59.80
2018-12-20T08:28:45.391Z,58.70
2018-12-20T08:29:47.274Z,58.30
2018-12-20T08:30:45.328Z,59.20
2018-12-20T08:31:45.290Z,59.00
2018-12-20T08:32:45.259Z,57.50
2018-12-20T08:33:45.259Z,58.20
2018-12-20T08:34:45.195Z,58.30
2018-12-20T08:35:45.213Z,58.60
2018-12-20T08:36:45.131Z,57.70
2018-12-20T08:37:45.106Z,56.60
2018-12-20T08:38:45.074Z,56.80
2018-12-20T08:39:45.037Z,58.00
2018-12-20T08:40:45.005Z,57.10
2018-12-20T08:41:44.979Z,56.10
2018-12-20T08:42:44.941Z,56.60
2018-12-20T08:43:44.910Z,54.50
2018-12-20T08:44:44.880Z,54.70
2018-12-20T08:45:44.852Z,56.50
2018-12-20T08:46:44.817Z,55.40
2018-12-20T08:47:44.783Z,56.00
2018-12-20T08:48:44.753Z,55.90
2018-12-20T08:49:44.721Z,54.90
2018-12-20T08:50:44.694Z,56.00
2018-12-20T08:51:48.978Z,56.90
2018-12-20T08:52:44.626Z,55.20
2018-12-20T08:53:44.599Z,55.30
2018-12-20T08:54:44.565Z,54.50
2018-12-20T08:55:44.533Z,55.40
2018-12-20T08:56:44.500Z,55.70
2018-12-20T08:57:44.469Z,55.40
2018-12-20T08:58:44.456Z,54.10
2018-12-20T08:59:44.417Z,53.30
2018-12-20T09:00:44.379Z,53.60
2018-12-20T09:01:44.346Z,55.90
2018-12-20T09:02:44.313Z,55.80
2018-12-20T09:03:44.281Z,55.80
2018-12-20T09:04:44.256Z,55.50
2018-12-20T09:05:44.224Z,52.70
2018-12-20T09:06:44.188Z,53.50
2018-12-20T09:07:44.156Z,52.90
2018-12-20T09:08:44.126Z,54.00
2018-12-20T09:09:44.098Z,52.50
2018-12-20T09:10:44.062Z,52.20
2018-12-20T09:11:44.032Z,52.00
2018-12-20T09:12:43.999Z,52.20
2018-12-20T09:13:43.972Z,52.40
2018-12-20T09:14:43.939Z,52.30
2018-12-20T09:15:43.907Z,52.40
2018-12-20T09:16:43.877Z,51.60
2018-12-20T09:17:43.849Z,52.20
2018-12-20T09:18:43.813Z,51.80
2018-12-20T09:19:43.792Z,52.40
2018-12-20T09:20:43.750Z,53.40
2018-12-20T09:21:43.723Z,51.80
2018-12-20T09:22:43.699Z,54.40
2018-12-20T09:23:43.657Z,53.70
2018-12-20T09:24:43.627Z,54.80
2018-12-20T09:25:43.596Z,55.00
2018-12-20T09:26:43.566Z,52.80
2018-12-20T09:27:43.533Z,53.00
2018-12-20T09:28:43.502Z,52.70
2018-12-20T09:29:43.471Z,54.40
2018-12-20T09:30:43.442Z,52.80
2018-12-20T09:31:43.412Z,53.30
2018-12-20T09:32:43.381Z,52.80
2018-12-20T09:33:43.352Z,52.00
2018-12-20T09:34:43.316Z,53.90
2018-12-20T09:35:43.287Z,51.30
2018-12-20T09:36:43.253Z,52.50
2018-12-20T09:37:43.223Z,51.60
2018-12-20T09:38:43.208Z,52.40
2018-12-20T09:39:43.161Z,52.20
2018-12-20T09:40:43.138Z,51.50
2018-12-20T09:41:43.102Z,51.80
2018-12-20T09:42:43.072Z,52.50
2018-12-20T09:43:43.038Z,52.40
2018-12-20T09:44:43.010Z,52.50
2018-12-20T09:45:42.976Z,51.40
2018-12-20T09:46:42.960Z,51.80
2018-12-20T09:47:42.917Z,52.80
2018-12-20T09:48:42.900Z,51.70
2018-12-20T09:49:42.857Z,51.10
2018-12-20T09:50:42.824Z,50.20
2018-12-20T09:51:42.796Z,49.60
2018-12-20T09:52:42.764Z,50.50
2018-12-20T09:53:42.731Z,49.20
2018-12-20T09:54:42.704Z,50.20
2018-12-20T09:55:42.688Z,50.20
2018-12-20T09:56:42.638Z,49.50
2018-12-20T09:57:42.619Z,49.70
2018-12-20T09:58:42.578Z,50.30
2018-12-20T09:59:42.556Z,48.80
2018-12-20T10:00:42.514Z,49.60
2018-12-20T10:01:42.486Z,49.80
2018-12-20T10:02:42.455Z,48.60
2018-12-20T10:03:42.431Z,50.10
2018-12-20T10:04:42.391Z,48.70
2018-12-20T10:05:42.364Z,49.40
2018-12-20T10:06:42.426Z,46.40
2018-12-20T10:07:42.302Z,47.40
2018-12-20T10:08:42.270Z,47.80
2018-12-20T10:09:42.238Z,47.20
2018-12-20T10:10:42.216Z,48.70
2018-12-20T10:11:42.177Z,46.50
2018-12-20T10:12:42.145Z,46.10
2018-12-20T10:13:42.114Z,43.40
2018-12-20T10:14:42.101Z,46.60
2018-12-20T10:15:42.056Z,46.40
2018-12-20T10:16:42.023Z,47.00
2018-12-20T10:17:41.993Z,47.40
2018-12-20T10:18:41.960Z,46.60
2018-12-20T10:19:41.931Z,44.30
2018-12-20T10:20:41.907Z,45.10
2018-12-20T10:21:41.889Z,44.50
2018-12-20T10:22:41.942Z,46.10
2018-12-20T10:23:41.806Z,45.20
2018-12-20T10:24:41.777Z,45.30
2018-12-20T10:25:41.771Z,44.30
2018-12-20T10:26:41.715Z,46.20
2018-12-20T10:27:41.686Z,44.50
2018-12-20T10:28:41.671Z,47.50
2018-12-20T10:29:41.622Z,46.10
2018-12-20T10:30:41.592Z,46.10
2018-12-20T10:31:41.563Z,44.80
2018-12-20T10:32:41.531Z,43.90
2018-12-20T10:33:41.500Z,45.90
2018-12-20T10:34:41.470Z,46.30
2018-12-20T10:35:41.440Z,45.90
2018-12-20T10:36:41.409Z,46.20
2018-12-20T10:37:41.375Z,46.50
2018-12-20T10:38:41.759Z,45.60
2018-12-20T10:39:41.315Z,46.10
2018-12-20T10:40:41.284Z,46.60
2018-12-20T10:41:41.256Z,46.70
2018-12-20T10:42:41.226Z,47.70
2018-12-20T10:43:41.192Z,47.90
2018-12-20T10:44:41.161Z,48.00
2018-12-20T10:45:41.139Z,49.30
2018-12-20T10:46:41.100Z,48.50
2018-12-20T10:47:41.098Z,47.70
2018-12-20T10:48:41.042Z,50.10
2018-12-20T10:49:41.008Z,50.10
2018-12-20T10:50:40.977Z,51.90
2018-12-20T10:51:40.945Z,49.80
2018-12-20T10:52:40.918Z,50.80
2018-12-20T10:53:40.884Z,51.50
2018-12-20T10:54:40.861Z,50.30
2018-12-20T10:55:40.823Z,49.70
2018-12-20T10:56:40.805Z,49.00
2018-12-20T10:57:40.762Z,49.00
2018-12-20T10:58:40.741Z,48.70
2018-12-20T10:59:40.701Z,48.40
2018-12-20T11:00:40.687Z,49.30
2018-12-20T11:01:40.648Z,50.40
2018-12-20T11:02:40.615Z,50.30
2018-12-20T11:03:40.676Z,50.60
2018-12-20T11:04:40.549Z,49.90
2018-12-20T11:05:40.519Z,48.90
2018-12-20T11:06:40.490Z,48.90
2018-12-20T11:07:40.458Z,48.70
2018-12-20T11:08:40.428Z,49.20
2018-12-20T11:09:40.398Z,49.00
2018-12-20T11:10:40.375Z,49.30
2018-12-20T11:11:40.338Z,48.40
2018-12-20T11:12:40.308Z,47.40
2018-12-20T11:13:40.279Z,46.30
2018-12-20T11:14:40.252Z,46.70
2018-12-20T11:15:40.218Z,47.30
2018-12-20T11:16:40.202Z,47.10
2018-12-20T11:17:40.168Z,45.30
2018-12-20T11:18:40.126Z,48.00
2018-12-20T11:19:40.095Z,48.20
2018-12-20T11:20:40.069Z,47.90
2018-12-20T11:21:40.036Z,47.50
2018-12-20T11:22:40.005Z,49.00
2018-12-20T11:23:39.974Z,47.50
2018-12-20T11:24:39.946Z,44.50
2018-12-20T11:25:39.913Z,45.80
2018-12-20T11:26:39.892Z,45.30
2018-12-20T11:27:39.852Z,45.00
2018-12-20T11:28:39.823Z,47.10
2018-12-20T11:29:39.797Z,46.00
2018-12-20T11:30:39.767Z,45.50
2018-12-20T11:31:39.739Z,45.70
2018-12-20T11:32:39.716Z,44.70
2018-12-20T11:33:39.671Z,44.90
2018-12-20T11:34:39.652Z,45.00
2018-12-20T11:35:39.610Z,43.50
2018-12-20T11:36:39.677Z,45.40
2018-12-20T11:37:39.591Z,45.80
2018-12-20T11:38:39.520Z,44.90
2018-12-20T11:39:39.495Z,44.30
2018-12-20T11:40:39.459Z,44.70
2018-12-20T11:41:39.429Z,44.30
2018-12-20T11:42:39.397Z,46.10
2018-12-20T11:43:39.426Z,44.10
2018-12-20T11:44:39.341Z,45.60
2018-12-20T11:45:39.314Z,44.30
2018-12-20T11:46:39.277Z,44.90
2018-12-20T11:47:45.860Z,42.90
2018-12-20T11:48:39.220Z,43.10
2018-12-20T11:49:39.187Z,44.30
2018-12-20T11:50:39.184Z,43.40
2018-12-20T11:51:39.128Z,43.80
2018-12-20T11:52:42.485Z,42.70
2018-12-20T11:53:39.065Z,44.70
2018-12-20T11:54:39.036Z,44.70
2018-12-20T11:55:39.011Z,44.50
2018-12-20T11:56:38.974Z,44.70
2018-12-20T11:57:38.944Z,44.70
2018-12-20T11:58:38.928Z,44.50
2018-12-20T11:59:38.885Z,42.60
2018-12-20T12:00:38.852Z,42.90
2018-12-20T12:01:38.827Z,43.60
2018-12-20T12:02:38.793Z,41.90
2018-12-20T12:03:38.763Z,44.80
2018-12-20T12:04:38.731Z,42.40
2018-12-20T12:05:38.711Z,43.30
2018-12-20T12:06:38.670Z,41.50
2018-12-20T12:07:38.642Z,42.90
2018-12-20T12:08:38.610Z,43.40
2018-12-20T12:09:38.580Z,43.10
2018-12-20T12:10:38.549Z,43.40
2018-12-20T12:11:38.517Z,44.50
2018-12-20T12:12:38.524Z,42.90
2018-12-20T12:13:38.463Z,43.70
2018-12-20T12:14:38.428Z,43.50
2018-12-20T12:15:38.396Z,45.70
2018-12-20T12:16:38.365Z,43.70
2018-12-20T12:17:38.334Z,44.20
2018-12-20T12:18:38.304Z,43.20
2018-12-20T12:19:38.287Z,43.20
2018-12-20T12:20:38.242Z,44.80
2018-12-20T12:21:38.220Z,43.30
2018-12-20T12:22:38.182Z,43.30
2018-12-20T12:23:38.151Z,42.80
2018-12-20T12:24:38.122Z,43.70
2018-12-20T12:25:38.098Z,43.30
2018-12-20T12:26:38.063Z,42.90
2018-12-20T12:27:38.031Z,44.00
2018-12-20T12:28:37.998Z,42.20
2018-12-20T12:29:37.967Z,43.20
2018-12-20T12:30:37.942Z,43.00
2018-12-20T12:31:37.915Z,41.30
2018-12-20T12:32:37.875Z,43.50
2018-12-20T12:33:37.850Z,42.60
2018-12-20T12:34:37.836Z,42.30
2018-12-20T12:35:37.786Z,44.30
2018-12-20T12:36:37.754Z,41.70
2018-12-20T12:37:37.724Z,42.80
2018-12-20T12:38:37.694Z,41.20
2018-12-20T12:39:37.662Z,42.50
2018-12-20T12:40:37.634Z,42.40
2018-12-20T12:41:37.611Z,42.00
2018-12-20T12:42:37.570Z,42.10
2018-12-20T12:43:37.540Z,40.90
2018-12-20T12:44:37.507Z,39.50
2018-12-20T12:45:37.484Z,42.40
2018-12-20T12:46:37.447Z,42.00
2018-12-20T12:47:37.426Z,41.60
2018-12-20T12:48:37.391Z,41.40
2018-12-20T12:49:37.357Z,41.60
2018-12-20T12:50:37.355Z,39.90
2018-12-20T12:51:37.294Z,42.60